createdAt,value
2024-02-16T00:01:26.366Z,44.21
2024-02-16T00:03:32.630Z,44.33
2024-02-16T00:05:38.550Z,44.16
2024-02-16T00:07:44.401Z,44.35
2024-02-16T00:09:50.226Z,44.03
2024-02-16T00:11:56.001Z,44.1
2024-02-16T00:14:01.808Z,44.02
2024-02-16T00:16:07.579Z,44.12
2024-02-16T00:18:13.522Z,44.22
2024-02-16T00:20:19.274Z,44.32
2024-02-16T00:22:25.124Z,44.08
2024-02-16T00:24:31.007Z,44.26
2024-02-16T00:26:36.861Z,44.24
2024-02-16T00:28:42.678Z,44.33
2024-02-16T00:30:48.325Z,44.22
2024-02-16T00:32:54.537Z,44.37
2024-02-16T00:35:00.592Z,44.42
2024-02-16T00:37:06.489Z,44.21
2024-02-16T00:39:12.239Z,44.2
2024-02-16T00:41:17.995Z,44.48
2024-02-16T00:43:23.846Z,44.35
2024-02-16T00:45:29.642Z,44.39
2024-02-16T00:47:35.535Z,44.34
2024-02-16T00:49:41.715Z,44.32
2024-02-16T00:51:47.550Z,44.42
2024-02-16T00:53:53.356Z,44.51
2024-02-16T00:55:59.142Z,44.33
2024-02-16T00:58:05.091Z,44.41
2024-02-16T01:00:11.339Z,44.21
2024-02-16T01:02:17.516Z,44.21
2024-02-16T01:04:23.283Z,44.44
2024-02-16T01:06:29.245Z,44.22
2024-02-16T01:08:35.166Z,44.15
2024-02-16T01:10:40.945Z,44.42
2024-02-16T01:12:46.592Z,44.43
2024-02-16T01:14:52.541Z,44.39
2024-02-16T01:16:58.295Z,44.26
2024-02-16T01:19:04.153Z,44.43
2024-02-16T01:21:09.862Z,44.15
2024-02-16T01:23:15.591Z,44.4
2024-02-16T01:25:21.473Z,44.54
2024-02-16T01:27:27.455Z,44.4
2024-02-16T01:29:33.457Z,44.4
2024-02-16T01:31:39.310Z,44.22
2024-02-16T01:33:45.457Z,44.22
2024-02-16T01:35:51.322Z,44.2
2024-02-16T01:37:56.919Z,44.35
2024-02-16T01:40:02.593Z,44.24
2024-02-16T01:42:08.339Z,44.3
2024-02-16T01:44:14.085Z,44.32
2024-02-16T01:46:19.668Z,44.41
2024-02-16T01:48:25.764Z,44.54
2024-02-16T01:50:32.623Z,44.36
2024-02-16T01:52:39.538Z,44.26
2024-02-16T01:54:45.306Z,44.25
2024-02-16T01:56:50.969Z,44.23
2024-02-16T01:58:56.498Z,44.3
2024-02-16T02:01:02.294Z,44.3
2024-02-16T02:03:08.096Z,44.28
2024-02-16T02:05:14.431Z,44.46
2024-02-16T02:07:20.636Z,44.2
2024-02-16T02:09:26.371Z,44.52
2024-02-16T02:11:32.179Z,44.42
2024-02-16T02:13:38.041Z,44.47
2024-02-16T02:15:43.811Z,44.5
2024-02-16T02:17:49.717Z,44.26
2024-02-16T02:19:55.512Z,44.22
2024-02-16T02:22:01.125Z,44.5
2024-02-16T02:24:06.896Z,44.32
2024-02-16T02:26:16.002Z,44.33
2024-02-16T02:28:21.603Z,44.46
2024-02-16T02:30:27.190Z,44.32
2024-02-16T02:32:32.965Z,44.29
2024-02-16T02:34:39.194Z,44.34
2024-02-16T02:36:44.948Z,44.44
2024-02-16T02:38:50.736Z,44.59
2024-02-16T02:40:56.547Z,44.66
2024-02-16T02:43:02.398Z,44.53
2024-02-16T02:45:08.044Z,44.59
2024-02-16T02:47:13.690Z,44.58
2024-02-16T02:49:19.496Z,44.6
2024-02-16T02:51:25.503Z,44.73
2024-02-16T02:53:31.077Z,44.52
2024-02-16T02:55:38.319Z,44.58
2024-02-16T02:57:43.843Z,44.54
2024-02-16T02:59:49.906Z,44.51
2024-02-16T03:01:55.536Z,44.78
2024-02-16T03:04:01.627Z,44.55
2024-02-16T03:06:08.196Z,44.62
2024-02-16T03:08:13.934Z,44.43
2024-02-16T03:10:19.581Z,44.48
2024-02-16T03:12:25.238Z,44.37
2024-02-16T03:14:30.845Z,44.48
2024-02-16T03:16:36.624Z,44.51
2024-02-16T03:18:42.619Z,44.51
2024-02-16T03:20:48.471Z,44.4
2024-02-16T03:22:54.269Z,44.42
2024-02-16T03:25:00.015Z,44.53
2024-02-16T03:27:05.904Z,44.83
2024-02-16T03:29:11.408Z,44.82
2024-02-16T03:32:08.044Z,44.72
2024-02-16T03:34:14.311Z,44.74
2024-02-16T03:36:20.050Z,44.64
2024-02-16T03:38:25.611Z,44.69
2024-02-16T03:40:31.166Z,44.7
2024-02-16T03:42:36.925Z,44.87
2024-02-16T03:44:42.634Z,44.7
2024-02-16T03:46:50.392Z,44.68
2024-02-16T03:48:58.645Z,44.76
2024-02-16T03:51:04.437Z,44.9
2024-02-16T03:53:09.915Z,44.94
2024-02-16T03:55:15.289Z,44.85
2024-02-16T03:57:20.733Z,45.02
2024-02-16T03:59:26.618Z,45.02
2024-02-16T04:01:32.547Z,44.95
2024-02-16T04:03:38.307Z,45.08
2024-02-16T04:05:43.898Z,45.13
2024-02-16T04:07:49.651Z,45.12
2024-02-16T04:09:55.205Z,45.13
2024-02-16T04:12:00.797Z,45.2
2024-02-16T04:14:06.276Z,45.13
2024-02-16T04:16:11.735Z,45.24
2024-02-16T04:18:17.664Z,45.22
2024-02-16T04:20:23.417Z,45.19
2024-02-16T04:22:28.878Z,45.22
2024-02-16T04:24:34.578Z,45.23
2024-02-16T04:26:39.996Z,45.15
2024-02-16T04:28:47.021Z,45.26
2024-02-16T04:30:52.572Z,45.25
2024-02-16T04:32:58.527Z,45.21
2024-02-16T04:35:04.499Z,45.26
2024-02-16T04:37:09.947Z,45.27
2024-02-16T04:39:15.364Z,45.32
2024-02-16T04:41:20.882Z,45.32
2024-02-16T04:43:26.329Z,45.38
2024-02-16T04:45:31.991Z,45.36
2024-02-16T04:47:37.652Z,45.31
2024-02-16T04:49:43.261Z,45.34
2024-02-16T04:51:49.018Z,45.38
2024-02-16T04:53:54.716Z,45.28
2024-02-16T04:56:00.054Z,45.47
2024-02-16T04:58:05.782Z,45.37
2024-02-16T05:00:11.548Z,45.4
2024-02-16T05:02:17.100Z,45.41
2024-02-16T05:04:22.978Z,45.41
2024-02-16T05:06:29.119Z,45.43
2024-02-16T05:08:34.785Z,45.44
2024-02-16T05:10:40.167Z,45.39
2024-02-16T05:12:45.772Z,45.47
2024-02-16T05:14:51.151Z,45.49
2024-02-16T05:17:01.016Z,45.58
2024-02-16T05:19:06.754Z,45.57
2024-02-16T05:21:12.594Z,45.54
2024-02-16T05:23:18.189Z,45.55
2024-02-16T05:25:23.854Z,45.56
2024-02-16T05:27:29.583Z,45.59
2024-02-16T05:29:34.891Z,45.49
2024-02-16T05:31:40.268Z,45.55
2024-02-16T05:33:46.194Z,45.58
2024-02-16T05:35:51.884Z,45.52
2024-02-16T05:37:57.347Z,45.6
2024-02-16T05:40:02.842Z,45.58
2024-02-16T05:42:08.393Z,45.54
2024-02-16T05:44:13.681Z,45.53
2024-02-16T05:46:19.062Z,45.58
2024-02-16T05:48:24.978Z,45.55
2024-02-16T05:50:30.724Z,45.52
2024-02-16T05:52:36.266Z,45.57
2024-02-16T05:54:42.094Z,45.54
2024-02-16T05:56:47.577Z,45.62
2024-02-16T05:58:52.951Z,45.55
2024-02-16T06:00:58.945Z,45.56
2024-02-16T06:03:04.542Z,45.56
2024-02-16T06:05:10.144Z,45.58
2024-02-16T06:07:16.129Z,45.59
2024-02-16T06:09:21.944Z,45.58
2024-02-16T06:11:27.496Z,45.59
2024-02-16T06:13:32.982Z,45.57
2024-02-16T06:15:38.686Z,45.67
2024-02-16T06:17:44.638Z,45.69
2024-02-16T06:19:51.682Z,45.63
2024-02-16T06:21:57.169Z,45.71
2024-02-16T06:24:02.722Z,45.8
2024-02-16T06:26:08.243Z,45.81
2024-02-16T06:28:13.545Z,45.81
2024-02-16T06:30:19.082Z,45.83
2024-02-16T06:32:24.423Z,45.88
2024-02-16T06:34:30.162Z,45.85
2024-02-16T06:36:35.880Z,45.83
2024-02-16T06:38:41.404Z,45.89
2024-02-16T06:40:46.973Z,45.85
2024-02-16T06:42:52.379Z,45.4
2024-02-16T06:44:57.921Z,41.59
2024-02-16T06:47:03.405Z,43.83
2024-02-16T06:49:11.018Z,43.95
2024-02-16T06:51:17.215Z,44.23
2024-02-16T06:53:22.603Z,44.34
2024-02-16T06:55:27.975Z,44.39
2024-02-16T06:57:33.576Z,44.34
2024-02-16T06:59:40.209Z,44.25
2024-02-16T07:01:45.634Z,44.23
2024-02-16T07:03:51.327Z,44.16
2024-02-16T07:05:57.058Z,43.9
2024-02-16T07:08:02.495Z,44.05
2024-02-16T07:10:08.029Z,43.86
2024-02-16T07:12:13.783Z,43.93
2024-02-16T07:14:19.439Z,43.97
2024-02-16T07:16:24.975Z,43.91
2024-02-16T07:18:31.055Z,43.92
2024-02-16T07:20:36.568Z,43.98
2024-02-16T07:22:42.101Z,43.93
2024-02-16T07:24:47.513Z,43.74
2024-02-16T07:26:54.324Z,43.65
2024-02-16T07:28:59.863Z,43.74
2024-02-16T07:31:06.013Z,43.58
2024-02-16T07:33:11.872Z,43.59
2024-02-16T07:35:18.168Z,43.55
2024-02-16T07:37:24.677Z,43.53
2024-02-16T07:39:30.261Z,43.52
2024-02-16T07:41:35.678Z,43.44
2024-02-16T07:43:40.912Z,43.21
2024-02-16T07:45:46.485Z,43.26
2024-02-16T07:47:52.184Z,43.22
2024-02-16T07:49:58.080Z,43.34
2024-02-16T07:52:03.494Z,43.29
2024-02-16T07:54:09.011Z,43.28
2024-02-16T07:56:15.815Z,43.09
2024-02-16T07:58:22.571Z,43.07
2024-02-16T08:00:28.110Z,43.08
2024-02-16T08:02:33.416Z,43.09
2024-02-16T08:04:38.804Z,43.11
2024-02-16T08:06:44.507Z,43.13
2024-02-16T08:08:50.089Z,43.08
2024-02-16T08:10:55.718Z,43.07
2024-02-16T08:13:01.280Z,42.98
2024-02-16T08:15:06.733Z,42.92
2024-02-16T08:17:22.233Z,42.96
2024-02-16T08:19:27.919Z,42.89
2024-02-16T08:21:33.571Z,42.52
2024-02-16T08:23:39.131Z,42.51
2024-02-16T08:25:44.493Z,42.59
2024-02-16T08:27:49.833Z,42.74
2024-02-16T08:29:55.336Z,42.99
2024-02-16T08:32:01.101Z,43.14
2024-02-16T08:34:10.570Z,43.24
2024-02-16T08:36:16.267Z,43.31
2024-02-16T08:38:21.639Z,43.34
2024-02-16T08:40:26.946Z,43.38
2024-02-16T08:42:32.818Z,43.46
2024-02-16T08:44:38.372Z,43.48
2024-02-16T08:46:43.693Z,43.49
2024-02-16T08:48:49.762Z,43.49
2024-02-16T08:50:55.360Z,43.46
2024-02-16T08:53:00.733Z,43.47
2024-02-16T08:55:06.478Z,43.43
2024-02-16T08:57:11.974Z,43.42
2024-02-16T08:59:17.581Z,43.36
2024-02-16T09:01:23.012Z,43.24
2024-02-16T09:03:28.855Z,43.23
2024-02-16T09:05:34.584Z,43.1
2024-02-16T09:07:40.140Z,43.04
2024-02-16T09:09:45.742Z,42.97
2024-02-16T09:11:51.182Z,42.83
2024-02-16T09:13:56.466Z,42.83
2024-02-16T09:16:01.978Z,42.78
2024-02-16T09:18:07.926Z,42.73
2024-02-16T09:20:13.818Z,41.46
2024-02-16T09:22:19.321Z,40.85
2024-02-16T09:24:25.010Z,39.72
2024-02-16T09:26:30.486Z,40.26
2024-02-16T09:28:35.871Z,40.82
2024-02-16T09:30:41.663Z,41.23
2024-02-16T09:32:47.250Z,41.35
2024-02-16T09:34:53.266Z,41.33
2024-02-16T09:36:59.077Z,41.24
2024-02-16T09:39:04.638Z,41.31
2024-02-16T09:41:10.173Z,41.2
2024-02-16T09:43:15.710Z,41.29
2024-02-16T09:45:21.476Z,40.95
2024-02-16T09:47:26.912Z,36.16
2024-02-16T09:49:43.403Z,34.34
2024-02-16T09:51:49.052Z,34.88
2024-02-16T09:53:59.095Z,35.45
2024-02-16T09:56:05.200Z,34.67
2024-02-16T09:58:10.512Z,34.45
2024-02-16T10:00:16.053Z,34.49
2024-02-16T10:02:21.577Z,35.49
2024-02-16T10:04:27.058Z,35.01
2024-02-16T10:06:32.840Z,36.12
2024-02-16T10:08:38.230Z,35.42
2024-02-16T10:10:43.973Z,35.43
2024-02-16T10:12:49.697Z,35.95
2024-02-16T10:14:55.530Z,35.49
2024-02-16T10:17:00.930Z,36.03
2024-02-16T10:19:06.794Z,35.39
2024-02-16T10:21:12.299Z,35.54
2024-02-16T10:23:17.835Z,35.55
2024-02-16T10:25:23.341Z,35.67
2024-02-16T10:27:28.872Z,35.37
2024-02-16T10:29:34.198Z,35.5
2024-02-16T10:31:39.606Z,35.57
2024-02-16T10:33:45.728Z,35.86
2024-02-16T10:35:51.395Z,35.75
2024-02-16T10:37:57.095Z,35.38
2024-02-16T10:40:02.463Z,35.09
2024-02-16T10:42:07.973Z,35.33
2024-02-16T10:44:13.400Z,35.15
2024-02-16T10:46:18.900Z,34.94
2024-02-16T10:48:24.729Z,35.38
2024-02-16T10:50:30.584Z,34.84
2024-02-16T10:52:35.842Z,34.47
2024-02-16T10:54:41.580Z,34.54
2024-02-16T10:56:47.203Z,34.58
2024-02-16T10:58:52.765Z,34.55
2024-02-16T11:00:59.016Z,34.64
2024-02-16T11:03:05.128Z,34.95
2024-02-16T11:05:11.028Z,35.41
2024-02-16T11:07:17.548Z,34.93
2024-02-16T11:09:23.876Z,35.19
2024-02-16T11:11:29.394Z,34.89
2024-02-16T11:13:34.825Z,34.82
2024-02-16T11:15:40.737Z,35.08
2024-02-16T11:17:46.367Z,35.05
2024-02-16T11:19:53.218Z,35.05
2024-02-16T11:21:58.782Z,34.92
2024-02-16T11:24:04.378Z,34.21
2024-02-16T11:26:09.886Z,34.19
2024-02-16T11:28:15.326Z,34.17
2024-02-16T11:30:20.960Z,34.15
2024-02-16T11:32:26.206Z,34.4
2024-02-16T11:34:31.831Z,34.08
2024-02-16T11:36:37.468Z,34.04
2024-02-16T11:38:43.122Z,34.11
2024-02-16T11:40:48.654Z,34.19
2024-02-16T11:42:57.528Z,34.07
2024-02-16T11:45:03.012Z,34.13
2024-02-16T11:47:08.355Z,34.22
2024-02-16T11:49:14.076Z,33.95
2024-02-16T11:51:20.400Z,33.79
2024-02-16T11:53:25.921Z,33.78
2024-02-16T11:55:31.443Z,33.63
2024-02-16T11:57:37.592Z,33.48
2024-02-16T11:59:43.172Z,33.52
2024-02-16T12:01:48.672Z,33.57
2024-02-16T12:03:54.159Z,33.5
2024-02-16T12:06:00.209Z,33.88
2024-02-16T12:08:06.042Z,34.47
2024-02-16T12:10:11.840Z,34.61
2024-02-16T12:12:17.356Z,34.9
2024-02-16T12:14:22.877Z,35.19
2024-02-16T12:16:28.228Z,35.19
2024-02-16T12:18:34.198Z,35.29
2024-02-16T12:20:40.137Z,35.31
2024-02-16T12:22:45.785Z,35.13
2024-02-16T12:24:51.175Z,34.94
2024-02-16T12:26:56.643Z,35.54
2024-02-16T12:29:02.216Z,34.85
2024-02-16T12:31:07.511Z,34.25
2024-02-16T12:33:13.402Z,34.54
2024-02-16T12:35:19.553Z,34.45
2024-02-16T12:37:25.218Z,34.48
2024-02-16T12:39:30.630Z,35.58
2024-02-16T12:41:36.316Z,36.71
2024-02-16T12:43:41.783Z,35.9
2024-02-16T12:45:47.557Z,35.86
2024-02-16T12:47:53.268Z,36.22
2024-02-16T12:49:59.578Z,36.38
2024-02-16T12:52:05.279Z,36.51
2024-02-16T12:54:10.959Z,36.46
2024-02-16T12:56:16.397Z,36.23
2024-02-16T12:58:22.080Z,36.2
2024-02-16T13:00:28.041Z,35.99
2024-02-16T13:02:33.716Z,36.03
2024-02-16T13:04:39.503Z,35.86
2024-02-16T13:06:45.468Z,35.73
2024-02-16T13:08:50.951Z,35.68
2024-02-16T13:10:56.708Z,35.72
2024-02-16T13:13:02.086Z,35.49
2024-02-16T13:15:30.254Z,35.44
2024-02-16T13:17:38.917Z,35.6
2024-02-16T13:19:44.605Z,35.65
2024-02-16T13:24:28.958Z,35.86
2024-02-16T13:26:34.672Z,36.03
2024-02-16T13:28:40.073Z,35.97
2024-02-16T13:30:46.109Z,36.09
2024-02-16T13:32:51.740Z,36.21
2024-02-16T13:34:57.343Z,36.24
2024-02-16T13:37:02.852Z,36.79
2024-02-16T13:39:08.415Z,36.49
2024-02-16T13:41:16.015Z,36.54
2024-02-16T13:43:23.105Z,36.43
2024-02-16T13:45:28.627Z,36.44
2024-02-16T13:47:34.201Z,36.43
2024-02-16T13:49:39.904Z,36.41
2024-02-16T13:51:45.820Z,36.45
2024-02-16T13:53:51.348Z,36.41
2024-02-16T13:55:56.917Z,36.46
2024-02-16T13:58:02.294Z,36.43
2024-02-16T14:00:07.940Z,36.53
2024-02-16T14:02:13.299Z,36.22
2024-02-16T14:04:18.959Z,35.97
2024-02-16T14:06:24.618Z,35.68
2024-02-16T14:08:30.352Z,35.48
2024-02-16T14:10:35.986Z,34.93
2024-02-16T14:12:41.598Z,34.65
2024-02-16T14:14:47.361Z,34.4
2024-02-16T14:16:52.755Z,34.33
2024-02-16T14:18:58.858Z,34.07
2024-02-16T14:21:05.135Z,34.35
2024-02-16T14:23:10.999Z,34.55
2024-02-16T14:25:16.408Z,34.52
2024-02-16T14:27:22.517Z,34.65
2024-02-16T14:29:28.416Z,34.66
2024-02-16T14:31:33.804Z,35.2
2024-02-16T14:33:39.788Z,35.58
2024-02-16T14:35:45.541Z,35.7
2024-02-16T14:37:50.977Z,35.7
2024-02-16T14:39:56.529Z,35.77
2024-02-16T14:42:01.981Z,35.82
2024-02-16T14:44:07.424Z,35.81
2024-02-16T14:46:13.066Z,35.83
2024-02-16T14:48:20.790Z,35.88
2024-02-16T14:50:26.508Z,35.66
2024-02-16T14:52:32.059Z,35.78
2024-02-16T14:54:37.667Z,35.91
2024-02-16T14:56:43.052Z,35.92
2024-02-16T14:58:48.540Z,35.28
2024-02-16T15:00:54.633Z,35.02
2024-02-16T15:03:00.322Z,34.81
2024-02-16T15:05:05.843Z,34.84
2024-02-16T15:07:11.105Z,35.1
2024-02-16T15:09:17.061Z,35.24
2024-02-16T15:11:22.526Z,35.36
2024-02-16T15:13:27.953Z,35.35
2024-02-16T15:15:33.721Z,35.5
2024-02-16T15:17:39.825Z,35.51
2024-02-16T15:19:45.673Z,35.36
2024-02-16T15:21:51.673Z,35.29
2024-02-16T15:23:57.510Z,35.36
2024-02-16T15:26:03.051Z,35.29
2024-02-16T15:28:08.635Z,35.35
2024-02-16T15:30:14.258Z,35.5
2024-02-16T15:32:19.877Z,35.41
2024-02-16T15:34:25.600Z,35.41
2024-02-16T15:36:31.293Z,35.48
2024-02-16T15:38:36.771Z,35.42
2024-02-16T15:40:42.128Z,35.41
2024-02-16T15:42:47.761Z,35.42
2024-02-16T15:44:57.931Z,35.53
2024-02-16T15:47:03.355Z,35.75
2024-02-16T15:49:09.009Z,36
2024-02-16T15:51:14.900Z,36.2
2024-02-16T15:53:20.393Z,36.13
2024-02-16T15:55:25.714Z,36.31
2024-02-16T15:57:31.235Z,36.42
2024-02-16T15:59:36.714Z,36.48
2024-02-16T16:01:42.146Z,36.58
2024-02-16T16:03:48.297Z,36.59
2024-02-16T16:05:53.939Z,36.79
2024-02-16T16:07:59.304Z,36.84
2024-02-16T16:10:04.824Z,37.14
2024-02-16T16:12:10.405Z,36.84
2024-02-16T16:14:15.912Z,36.85
2024-02-16T16:16:21.349Z,36.59
2024-02-16T16:18:27.621Z,36.47
2024-02-16T16:20:33.488Z,36.42
2024-02-16T16:22:38.907Z,36.38
2024-02-16T16:24:45.066Z,36.31
2024-02-16T16:26:50.725Z,36.23
2024-02-16T16:28:56.006Z,36.19
2024-02-16T16:31:01.396Z,36.16
2024-02-16T16:33:07.263Z,36.3
2024-02-16T16:35:15.095Z,36.38
2024-02-16T16:37:20.725Z,36.32
2024-02-16T16:39:26.343Z,36.24
2024-02-16T16:41:31.887Z,36.18
2024-02-16T16:43:37.300Z,36.12
2024-02-16T16:45:43.048Z,36.06
2024-02-16T16:47:48.483Z,36.03
2024-02-16T16:49:54.277Z,35.99
2024-02-16T16:51:59.813Z,36.01
2024-02-16T16:54:05.400Z,36.23
2024-02-16T16:56:10.818Z,35.76
2024-02-16T16:58:16.172Z,35.45
2024-02-16T17:00:21.700Z,34.89
2024-02-16T17:02:28.460Z,34.9
2024-02-16T17:04:33.917Z,34.78
2024-02-16T17:06:39.640Z,34.59
2024-02-16T17:08:49.666Z,34.72
2024-02-16T17:10:55.465Z,34.69
2024-02-16T17:13:00.947Z,34.73
2024-02-16T17:15:06.510Z,34.75
2024-02-16T17:17:12.950Z,34.73
2024-02-16T17:19:19.048Z,35.39
2024-02-16T17:21:24.561Z,35.69
2024-02-16T17:23:30.039Z,35.66
2024-02-16T17:25:35.515Z,35.63
2024-02-16T17:27:44.771Z,35.17
2024-02-16T17:29:50.169Z,35.74
2024-02-16T17:31:55.653Z,35.98
2024-02-16T17:34:05.141Z,36.08
2024-02-16T17:36:12.770Z,35.99
2024-02-16T17:38:18.172Z,36.14
2024-02-16T17:40:23.781Z,36.32
2024-02-16T17:42:29.478Z,36.2
2024-02-16T17:44:34.960Z,35.98
2024-02-16T17:46:40.508Z,35.87
2024-02-16T17:48:46.329Z,35.64
2024-02-16T17:50:51.738Z,35.18
2024-02-16T17:52:57.186Z,35.41
2024-02-16T17:55:09.223Z,34.9
2024-02-16T17:57:14.668Z,34.78
2024-02-16T17:59:20.312Z,34.88
2024-02-16T18:01:25.948Z,34.96
2024-02-16T18:03:31.469Z,34.78
2024-02-16T18:05:36.941Z,34.74
2024-02-16T18:07:43.097Z,35.04
2024-02-16T18:09:48.794Z,34.73
2024-02-16T18:11:54.294Z,34.95
2024-02-16T18:13:59.829Z,34.88
2024-02-16T18:16:05.235Z,34.85
2024-02-16T18:18:11.315Z,34.76
2024-02-16T18:20:17.272Z,34.31
2024-02-16T18:22:22.928Z,34.4
2024-02-16T18:24:28.586Z,34.34
2024-02-16T18:26:34.012Z,34.41
2024-02-16T18:28:48.362Z,34.42
2024-02-16T18:30:54.106Z,34.42
2024-02-16T18:33:00.238Z,34.52
2024-02-16T18:35:06.320Z,34.44
2024-02-16T18:37:11.953Z,34.37
2024-02-16T18:39:17.569Z,34.24
2024-02-16T18:41:22.984Z,34.31
2024-02-16T18:43:30.347Z,34.36
2024-02-16T18:45:36.076Z,34.12
2024-02-16T18:47:41.860Z,34.01
2024-02-16T18:49:48.121Z,34.07
2024-02-16T18:51:53.859Z,34.04
2024-02-16T18:53:59.508Z,33.88
2024-02-16T18:56:05.119Z,34
2024-02-16T18:58:10.477Z,33.93
2024-02-16T19:00:15.918Z,34.07
2024-02-16T19:02:21.357Z,34.1
2024-02-16T19:04:26.771Z,34.1
2024-02-16T19:06:32.566Z,33.91
2024-02-16T19:08:38.169Z,33.81
2024-02-16T19:10:43.847Z,33.85
2024-02-16T19:12:49.385Z,33.81
2024-02-16T19:14:54.933Z,33.96
2024-02-16T19:17:00.341Z,33.79
2024-02-16T19:19:06.057Z,33.92
2024-02-16T19:21:12.312Z,33.78
2024-02-16T19:23:17.799Z,33.76
2024-02-16T19:25:23.448Z,33.74
2024-02-16T19:27:29.308Z,33.71
2024-02-16T19:29:34.933Z,33.93
2024-02-16T19:31:40.153Z,33.83
2024-02-16T19:33:45.843Z,33.81
2024-02-16T19:35:51.282Z,33.8
2024-02-16T19:37:56.789Z,33.81
2024-02-16T19:40:02.273Z,33.98
2024-02-16T19:42:08.277Z,33.73
2024-02-16T19:44:13.709Z,33.75
2024-02-16T19:46:19.302Z,33.97
2024-02-16T19:48:25.497Z,33.6
2024-02-16T19:50:31.442Z,33.55
2024-02-16T19:52:36.860Z,33.62
2024-02-16T19:54:42.603Z,33.59
2024-02-16T19:56:48.125Z,33.64
2024-02-16T19:58:53.594Z,33.63
2024-02-16T20:00:59.628Z,34.22
2024-02-16T20:03:05.375Z,33.92
2024-02-16T20:05:10.928Z,34.66
2024-02-16T20:07:16.682Z,35.1
2024-02-16T20:09:22.240Z,33.79
2024-02-16T20:11:27.922Z,33.57
2024-02-16T20:13:33.478Z,33.41
2024-02-16T20:15:39.091Z,33.37
2024-02-16T20:17:44.950Z,34.12
2024-02-16T20:19:51.234Z,33.94
2024-02-16T20:21:56.903Z,33.68
2024-02-16T20:24:02.454Z,33.6
2024-02-16T20:26:07.818Z,33.67
2024-02-16T20:28:13.157Z,33.65
2024-02-16T20:30:18.671Z,33.55
2024-02-16T20:32:24.319Z,34.79
2024-02-16T20:34:30.304Z,33.76
2024-02-16T20:36:35.945Z,34.29
2024-02-16T20:38:41.335Z,33.62
2024-02-16T20:40:46.969Z,33.58
2024-02-16T20:42:52.451Z,33.59
2024-02-16T20:44:57.965Z,33.49
2024-02-16T20:47:03.606Z,33.46
2024-02-16T20:49:09.514Z,33.45
2024-02-16T20:51:14.973Z,33.44
2024-02-16T20:53:20.283Z,33.41
2024-02-16T20:55:25.774Z,33.41
2024-02-16T20:57:31.333Z,33.43
2024-02-16T20:59:36.959Z,33.41
2024-02-16T21:01:42.569Z,33.39
2024-02-16T21:03:48.495Z,33.41
2024-02-16T21:05:54.058Z,33.4
2024-02-16T21:07:59.542Z,33.39
2024-02-16T21:10:04.846Z,33.36
2024-02-16T21:12:10.402Z,33.45
2024-02-16T21:14:15.804Z,33.49
2024-02-16T21:16:21.204Z,33.4
2024-02-16T21:18:26.794Z,33.34
2024-02-16T21:20:32.388Z,33.36
2024-02-16T21:22:40.246Z,33.34
2024-02-16T21:24:45.999Z,33.35
2024-02-16T21:26:51.385Z,33.39
2024-02-16T21:28:56.869Z,33.39
2024-02-16T21:31:02.337Z,33.39
2024-02-16T21:33:08.274Z,33.31
2024-02-16T21:35:14.065Z,33.44
2024-02-16T21:37:19.703Z,33.38
2024-02-16T21:39:25.158Z,33.32
2024-02-16T21:41:30.594Z,33.34
2024-02-16T21:43:36.237Z,33.52
2024-02-16T21:45:42.125Z,33.31
2024-02-16T21:47:47.478Z,33.37
2024-02-16T21:49:53.141Z,33.32
2024-02-16T21:51:58.857Z,33.27
2024-02-16T21:54:04.373Z,33.25
2024-02-16T21:56:09.990Z,33.23
2024-02-16T21:58:15.450Z,33.23
2024-02-16T22:00:20.850Z,33.3
2024-02-16T22:02:26.202Z,33.3
2024-02-16T22:04:31.619Z,33.3
2024-02-16T22:06:37.705Z,33.19
2024-02-16T22:08:43.125Z,33.17
2024-02-16T22:10:48.500Z,33.23
2024-02-16T22:12:55.189Z,33.18
2024-02-16T22:15:00.677Z,33.09
2024-02-16T22:17:06.169Z,33.09
2024-02-16T22:19:11.896Z,33.15
2024-02-16T22:21:26.676Z,33.11
2024-02-16T22:23:35.995Z,33.16
2024-02-16T22:25:41.323Z,33.2
2024-02-16T22:27:46.622Z,33.15
2024-02-16T22:29:52.200Z,33.15
2024-02-16T22:32:18.828Z,33.29
2024-02-16T22:34:25.269Z,33.25
2024-02-16T22:36:30.982Z,33.07
2024-02-16T22:38:37.064Z,33.06
2024-02-16T22:40:42.547Z,33.12
2024-02-16T22:42:48.345Z,33.22
2024-02-16T22:44:53.687Z,33.15
2024-02-16T22:46:59.120Z,33.25
2024-02-16T22:49:05.023Z,33.19
2024-02-16T22:51:10.821Z,33.18
2024-02-16T22:53:16.437Z,33.25
2024-02-16T22:55:22.429Z,33.1
2024-02-16T22:57:28.026Z,33.17
2024-02-16T22:59:33.673Z,33.1
2024-02-16T23:01:38.977Z,33.16
2024-02-16T23:03:44.836Z,33.07
2024-02-16T23:05:50.527Z,33.03
2024-02-16T23:07:56.153Z,33.15
2024-02-16T23:10:01.431Z,33.11
2024-02-16T23:12:07.174Z,33.01
2024-02-16T23:14:12.793Z,33.01
2024-02-16T23:16:18.151Z,33.01
2024-02-16T23:18:24.569Z,32.98
2024-02-16T23:20:30.124Z,32.99
2024-02-16T23:22:35.664Z,32.98
2024-02-16T23:24:41.168Z,32.98
2024-02-16T23:26:47.011Z,33.02
2024-02-16T23:28:52.542Z,32.98
2024-02-16T23:30:57.938Z,32.87
2024-02-16T23:33:03.877Z,32.91
2024-02-16T23:35:09.294Z,32.93
2024-02-16T23:37:14.655Z,32.96
2024-02-16T23:39:20.164Z,32.91
2024-02-16T23:41:25.543Z,32.95
2024-02-16T23:43:30.945Z,32.89
2024-02-16T23:45:36.483Z,32.85
2024-02-16T23:47:42.059Z,33.09
2024-02-16T23:49:47.985Z,32.86
2024-02-16T23:51:53.468Z,32.95
2024-02-16T23:53:59.004Z,32.91
2024-02-16T23:56:04.649Z,32.92
2024-02-16T23:58:10.212Z,32.9
